sensor_id;sensor_type;location;lat;lon;timestamp;pressure;altitude;pressure_sealevel;temperature
65600;BMP280;52272;-29.642;-50.764;2022-12-04T00:01:33;100251.81;;;27.10
65600;BMP280;52272;-29.642;-50.764;2022-12-04T00:04:04;100264.06;;;27.26
65600;BMP280;52272;-29.642;-50.764;2022-12-04T00:06:35;100261.22;;;27.16
65600;BMP280;52272;-29.642;-50.764;2022-12-04T00:09:05;100261.56;;;27.20
65600;BMP280;52272;-29.642;-50.764;2022-12-04T00:11:39;100256.13;;;27.13
65600;BMP280;52272;-29.642;-50.764;2022-12-04T00:14:12;100249.19;;;26.95
65600;BMP280;52272;-29.642;-50.764;2022-12-04T00:16:42;100248.47;;;26.94
65600;BMP280;52272;-29.642;-50.764;2022-12-04T00:19:12;100258.72;;;27.11
65600;BMP280;52272;-29.642;-50.764;2022-12-04T00:21:43;100259.81;;;27.15
65600;BMP280;52272;-29.642;-50.764;2022-12-04T00:24:14;100259.72;;;27.23
65600;BMP280;52272;-29.642;-50.764;2022-12-04T00:26:46;100246.94;;;27.01
65600;BMP280;52272;-29.642;-50.764;2022-12-04T00:29:17;100258.09;;;27.03
65600;BMP280;52272;-29.642;-50.764;2022-12-04T00:31:53;100261.28;;;27.09
65600;BMP280;52272;-29.642;-50.764;2022-12-04T00:34:23;100262.56;;;27.08
65600;BMP280;52272;-29.642;-50.764;2022-12-04T00:36:56;100257.66;;;27.06
65600;BMP280;52272;-29.642;-50.764;2022-12-04T00:39:26;100255.56;;;26.97
65600;BMP280;52272;-29.642;-50.764;2022-12-04T00:41:56;100258.50;;;26.92
65600;BMP280;52272;-29.642;-50.764;2022-12-04T00:44:26;100262.84;;;26.70
65600;BMP280;52272;-29.642;-50.764;2022-12-04T00:46:57;100265.94;;;26.74
65600;BMP280;52272;-29.642;-50.764;2022-12-04T00:49:27;100252.44;;;26.76
65600;BMP280;52272;-29.642;-50.764;2022-12-04T00:51:57;100252.31;;;26.67
65600;BMP280;52272;-29.642;-50.764;2022-12-04T00:54:28;100253.44;;;26.64
65600;BMP280;52272;-29.642;-50.764;2022-12-04T00:57:00;100256.16;;;26.64
65600;BMP280;52272;-29.642;-50.764;2022-12-04T00:59:30;100253.94;;;26.70
65600;BMP280;52272;-29.642;-50.764;2022-12-04T01:02:00;100252.81;;;26.73
65600;BMP280;52272;-29.642;-50.764;2022-12-04T01:04:30;100253.31;;;26.79
65600;BMP280;52272;-29.642;-50.764;2022-12-04T01:07:01;100255.72;;;26.75
65600;BMP280;52272;-29.642;-50.764;2022-12-04T01:09:32;100221.25;;;26.55
65600;BMP280;52272;-29.642;-50.764;2022-12-04T01:12:02;100251.47;;;26.57
65600;BMP280;52272;-29.642;-50.764;2022-12-04T01:14:33;100256.16;;;26.64
65600;BMP280;52272;-29.642;-50.764;2022-12-04T01:17:04;100251.59;;;26.34
65600;BMP280;52272;-29.642;-50.764;2022-12-04T01:19:35;100236.88;;;25.91
65600;BMP280;52272;-29.642;-50.764;2022-12-04T01:22:05;100234.56;;;26.19
65600;BMP280;52272;-29.642;-50.764;2022-12-04T01:24:35;100242.69;;;25.87
65600;BMP280;52272;-29.642;-50.764;2022-12-04T01:27:05;100240.28;;;26.06
65600;BMP280;52272;-29.642;-50.764;2022-12-04T01:29:36;100228.75;;;25.68
65600;BMP280;52272;-29.642;-50.764;2022-12-04T01:32:06;100239.47;;;25.74
65600;BMP280;52272;-29.642;-50.764;2022-12-04T01:34:37;100235.53;;;25.60
65600;BMP280;52272;-29.642;-50.764;2022-12-04T01:37:07;100242.00;;;25.79
65600;BMP280;52272;-29.642;-50.764;2022-12-04T01:39:38;100240.63;;;26.03
65600;BMP280;52272;-29.642;-50.764;2022-12-04T01:42:16;100230.66;;;25.98
65600;BMP280;52272;-29.642;-50.764;2022-12-04T01:47:56;100250.00;;;25.92
65600;BMP280;52272;-29.642;-50.764;2022-12-04T01:50:28;100239.13;;;25.70
65600;BMP280;52272;-29.642;-50.764;2022-12-04T01:52:58;100231.13;;;25.64
65600;BMP280;52272;-29.642;-50.764;2022-12-04T01:55:32;100213.00;;;25.44
65600;BMP280;52272;-29.642;-50.764;2022-12-04T01:58:02;100217.03;;;25.43
65600;BMP280;52272;-29.642;-50.764;2022-12-04T02:00:33;100209.22;;;25.32
65600;BMP280;52272;-29.642;-50.764;2022-12-04T02:03:03;100207.22;;;25.40
65600;BMP280;52272;-29.642;-50.764;2022-12-04T02:05:34;100206.66;;;25.42
65600;BMP280;52272;-29.642;-50.764;2022-12-04T02:08:04;100231.41;;;25.83
65600;BMP280;52272;-29.642;-50.764;2022-12-04T02:10:48;100227.72;;;26.03
65600;BMP280;52272;-29.642;-50.764;2022-12-04T02:19:52;100214.16;;;25.88
65600;BMP280;52272;-29.642;-50.764;2022-12-04T02:25:36;100217.50;;;26.11
65600;BMP280;52272;-29.642;-50.764;2022-12-04T02:28:27;100220.31;;;26.28
65600;BMP280;52272;-29.642;-50.764;2022-12-04T02:31:00;100218.81;;;26.34
65600;BMP280;52272;-29.642;-50.764;2022-12-04T02:34:05;100221.44;;;26.25
65600;BMP280;52272;-29.642;-50.764;2022-12-04T02:36:48;100214.16;;;26.20
65600;BMP280;52272;-29.642;-50.764;2022-12-04T02:39:48;100218.53;;;26.23
65600;BMP280;52272;-29.642;-50.764;2022-12-04T02:45:10;100212.06;;;26.43
65600;BMP280;52272;-29.642;-50.764;2022-12-04T02:47:43;100214.44;;;26.39
65600;BMP280;52272;-29.642;-50.764;2022-12-04T02:50:17;100212.66;;;26.34
65600;BMP280;52272;-29.642;-50.764;2022-12-04T02:52:58;100213.59;;;26.22
65600;BMP280;52272;-29.642;-50.764;2022-12-04T02:58:46;100210.69;;;25.95
65600;BMP280;52272;-29.642;-50.764;2022-12-04T03:01:21;100191.44;;;25.78
65600;BMP280;52272;-29.642;-50.764;2022-12-04T03:06:29;100176.25;;;25.45
65600;BMP280;52272;-29.642;-50.764;2022-12-04T03:09:06;100177.72;;;25.46
65600;BMP280;52272;-29.642;-50.764;2022-12-04T03:11:41;100185.91;;;25.46
65600;BMP280;52272;-29.642;-50.764;2022-12-04T03:14:34;100173.41;;;25.28
65600;BMP280;52272;-29.642;-50.764;2022-12-04T03:17:10;100173.22;;;25.26
65600;BMP280;52272;-29.642;-50.764;2022-12-04T03:19:52;100175.22;;;25.18
65600;BMP280;52272;-29.642;-50.764;2022-12-04T03:22:25;100181.00;;;25.45
65600;BMP280;52272;-29.642;-50.764;2022-12-04T03:24:59;100171.81;;;25.80
65600;BMP280;52272;-29.642;-50.764;2022-12-04T03:27:51;100165.91;;;25.91
65600;BMP280;52272;-29.642;-50.764;2022-12-04T03:30:23;100157.06;;;25.83
65600;BMP280;52272;-29.642;-50.764;2022-12-04T03:33:08;100154.25;;;25.98
65600;BMP280;52272;-29.642;-50.764;2022-12-04T03:35:56;100152.06;;;25.96
65600;BMP280;52272;-29.642;-50.764;2022-12-04T03:44:38;100130.56;;;26.00
65600;BMP280;52272;-29.642;-50.764;2022-12-04T03:47:16;100136.75;;;26.01
65600;BMP280;52272;-29.642;-50.764;2022-12-04T03:50:16;100134.91;;;26.03
65600;BMP280;52272;-29.642;-50.764;2022-12-04T03:55:46;100114.16;;;26.08
65600;BMP280;52272;-29.642;-50.764;2022-12-04T03:58:27;100116.31;;;26.09
65600;BMP280;52272;-29.642;-50.764;2022-12-04T04:01:00;100113.78;;;26.04
65600;BMP280;52272;-29.642;-50.764;2022-12-04T04:03:39;100122.50;;;26.10
65600;BMP280;52272;-29.642;-50.764;2022-12-04T04:06:21;100106.88;;;26.10
65600;BMP280;52272;-29.642;-50.764;2022-12-04T04:08:55;100107.91;;;26.15
65600;BMP280;52272;-29.642;-50.764;2022-12-04T04:11:33;100105.91;;;26.15
65600;BMP280;52272;-29.642;-50.764;2022-12-04T04:14:09;100090.34;;;26.25
65600;BMP280;52272;-29.642;-50.764;2022-12-04T04:17:04;100088.44;;;26.18
65600;BMP280;52272;-29.642;-50.764;2022-12-04T04:20:00;100086.00;;;26.22
65600;BMP280;52272;-29.642;-50.764;2022-12-04T04:22:51;100090.09;;;26.14
65600;BMP280;52272;-29.642;-50.764;2022-12-04T04:25:42;100077.06;;;26.05
65600;BMP280;52272;-29.642;-50.764;2022-12-04T04:31:45;100085.47;;;25.99
65600;BMP280;52272;-29.642;-50.764;2022-12-04T04:36:42;100080.56;;;25.98
65600;BMP280;52272;-29.642;-50.764;2022-12-04T04:42:01;100074.63;;;25.84
65600;BMP280;52272;-29.642;-50.764;2022-12-04T04:44:44;100059.72;;;25.85
65600;BMP280;52272;-29.642;-50.764;2022-12-04T04:47:21;100051.31;;;25.83
65600;BMP280;52272;-29.642;-50.764;2022-12-04T04:49:55;100054.66;;;25.82
65600;BMP280;52272;-29.642;-50.764;2022-12-04T04:52:26;100059.78;;;25.70
65600;BMP280;52272;-29.642;-50.764;2022-12-04T04:55:02;100045.59;;;25.72
65600;BMP280;52272;-29.642;-50.764;2022-12-04T04:57:34;100027.50;;;25.52
65600;BMP280;52272;-29.642;-50.764;2022-12-04T05:00:12;100041.03;;;25.74
65600;BMP280;52272;-29.642;-50.764;2022-12-04T05:02:45;100046.72;;;25.69
65600;BMP280;52272;-29.642;-50.764;2022-12-04T05:05:18;100049.03;;;25.72
65600;BMP280;52272;-29.642;-50.764;2022-12-04T05:07:48;100049.97;;;25.67
65600;BMP280;52272;-29.642;-50.764;2022-12-04T05:10:19;100043.00;;;25.74
65600;BMP280;52272;-29.642;-50.764;2022-12-04T05:12:49;100050.66;;;25.75
65600;BMP280;52272;-29.642;-50.764;2022-12-04T05:15:19;100044.84;;;25.79
65600;BMP280;52272;-29.642;-50.764;2022-12-04T05:17:49;100043.34;;;25.78
65600;BMP280;52272;-29.642;-50.764;2022-12-04T05:20:23;100040.38;;;25.91
65600;BMP280;52272;-29.642;-50.764;2022-12-04T05:22:53;100026.63;;;25.81
65600;BMP280;52272;-29.642;-50.764;2022-12-04T05:25:23;100045.56;;;25.79
65600;BMP280;52272;-29.642;-50.764;2022-12-04T05:27:53;100042.06;;;25.86
65600;BMP280;52272;-29.642;-50.764;2022-12-04T05:30:23;100044.44;;;25.82
65600;BMP280;52272;-29.642;-50.764;2022-12-04T05:32:54;100029.91;;;25.80
65600;BMP280;52272;-29.642;-50.764;2022-12-04T05:35:24;100042.94;;;25.89
65600;BMP280;52272;-29.642;-50.764;2022-12-04T05:37:55;100035.91;;;25.78
65600;BMP280;52272;-29.642;-50.764;2022-12-04T05:40:25;100023.25;;;25.66
65600;BMP280;52272;-29.642;-50.764;2022-12-04T05:42:56;100044.38;;;25.90
65600;BMP280;52272;-29.642;-50.764;2022-12-04T05:45:27;100038.13;;;25.72
65600;BMP280;52272;-29.642;-50.764;2022-12-04T05:47:58;100041.53;;;25.80
65600;BMP280;52272;-29.642;-50.764;2022-12-04T05:50:29;100047.59;;;25.71
65600;BMP280;52272;-29.642;-50.764;2022-12-04T05:53:00;100046.31;;;25.72
65600;BMP280;52272;-29.642;-50.764;2022-12-04T05:55:31;100041.41;;;25.71
65600;BMP280;52272;-29.642;-50.764;2022-12-04T05:58:02;100041.91;;;25.77
65600;BMP280;52272;-29.642;-50.764;2022-12-04T06:00:32;100027.72;;;25.78
65600;BMP280;52272;-29.642;-50.764;2022-12-04T06:03:04;100037.38;;;25.79
65600;BMP280;52272;-29.642;-50.764;2022-12-04T06:05:35;100039.53;;;25.81
65600;BMP280;52272;-29.642;-50.764;2022-12-04T06:08:06;100033.47;;;25.90
65600;BMP280;52272;-29.642;-50.764;2022-12-04T06:10:36;100044.06;;;25.86
65600;BMP280;52272;-29.642;-50.764;2022-12-04T06:13:10;100042.81;;;25.79
65600;BMP280;52272;-29.642;-50.764;2022-12-04T06:15:43;100053.50;;;25.92
65600;BMP280;52272;-29.642;-50.764;2022-12-04T06:18:13;100059.03;;;25.77
65600;BMP280;52272;-29.642;-50.764;2022-12-04T06:20:43;100064.47;;;25.77
65600;BMP280;52272;-29.642;-50.764;2022-12-04T06:23:14;100060.81;;;25.82
65600;BMP280;52272;-29.642;-50.764;2022-12-04T06:25:44;100064.81;;;25.81
65600;BMP280;52272;-29.642;-50.764;2022-12-04T06:28:14;100069.41;;;25.71
65600;BMP280;52272;-29.642;-50.764;2022-12-04T06:30:44;100069.19;;;25.77
65600;BMP280;52272;-29.642;-50.764;2022-12-04T06:33:15;100077.59;;;25.71
65600;BMP280;52272;-29.642;-50.764;2022-12-04T06:35:45;100075.41;;;25.77
65600;BMP280;52272;-29.642;-50.764;2022-12-04T06:38:15;100065.59;;;25.74
65600;BMP280;52272;-29.642;-50.764;2022-12-04T06:40:45;100066.81;;;25.81
65600;BMP280;52272;-29.642;-50.764;2022-12-04T06:43:15;100069.16;;;25.84
65600;BMP280;52272;-29.642;-50.764;2022-12-04T06:45:46;100065.25;;;25.70
65600;BMP280;52272;-29.642;-50.764;2022-12-04T06:48:16;100075.41;;;25.77
65600;BMP280;52272;-29.642;-50.764;2022-12-04T06:50:47;100072.06;;;25.86
65600;BMP280;52272;-29.642;-50.764;2022-12-04T06:53:20;100071.38;;;25.86
65600;BMP280;52272;-29.642;-50.764;2022-12-04T06:55:51;100075.84;;;25.91
65600;BMP280;52272;-29.642;-50.764;2022-12-04T06:58:21;100073.88;;;25.91
65600;BMP280;52272;-29.642;-50.764;2022-12-04T07:00:52;100069.94;;;25.77
65600;BMP280;52272;-29.642;-50.764;2022-12-04T07:03:23;100055.16;;;25.48
65600;BMP280;52272;-29.642;-50.764;2022-12-04T07:05:54;100074.13;;;25.31
65600;BMP280;52272;-29.642;-50.764;2022-12-04T07:08:23;100080.53;;;25.73
65600;BMP280;52272;-29.642;-50.764;2022-12-04T07:10:56;100090.84;;;25.82
65600;BMP280;52272;-29.642;-50.764;2022-12-04T07:13:30;100083.78;;;25.72
65600;BMP280;52272;-29.642;-50.764;2022-12-04T07:16:02;100064.22;;;25.58
65600;BMP280;52272;-29.642;-50.764;2022-12-04T07:18:34;100092.88;;;25.74
65600;BMP280;52272;-29.642;-50.764;2022-12-04T07:21:11;100093.94;;;25.79
65600;BMP280;52272;-29.642;-50.764;2022-12-04T07:23:42;100089.59;;;25.76
65600;BMP280;52272;-29.642;-50.764;2022-12-04T07:26:14;100083.75;;;25.79
65600;BMP280;52272;-29.642;-50.764;2022-12-04T07:28:45;100084.06;;;25.83
65600;BMP280;52272;-29.642;-50.764;2022-12-04T07:31:21;100084.50;;;25.72
65600;BMP280;52272;-29.642;-50.764;2022-12-04T07:33:51;100080.75;;;25.60
65600;BMP280;52272;-29.642;-50.764;2022-12-04T07:36:24;100088.31;;;25.37
65600;BMP280;52272;-29.642;-50.764;2022-12-04T07:38:55;100089.34;;;25.49
65600;BMP280;52272;-29.642;-50.764;2022-12-04T07:41:25;100086.34;;;25.70
65600;BMP280;52272;-29.642;-50.764;2022-12-04T07:43:56;100081.75;;;25.80
65600;BMP280;52272;-29.642;-50.764;2022-12-04T07:46:27;100086.88;;;25.68
65600;BMP280;52272;-29.642;-50.764;2022-12-04T07:48:58;100091.84;;;25.55
65600;BMP280;52272;-29.642;-50.764;2022-12-04T07:51:28;100098.13;;;25.33
65600;BMP280;52272;-29.642;-50.764;2022-12-04T07:53:58;100097.31;;;25.62
65600;BMP280;52272;-29.642;-50.764;2022-12-04T07:56:32;100100.63;;;25.85
65600;BMP280;52272;-29.642;-50.764;2022-12-04T07:59:02;100096.28;;;25.50
65600;BMP280;52272;-29.642;-50.764;2022-12-04T08:01:33;100097.88;;;25.93
65600;BMP280;52272;-29.642;-50.764;2022-12-04T08:04:04;100094.34;;;25.68
65600;BMP280;52272;-29.642;-50.764;2022-12-04T08:06:38;100083.25;;;25.34
65600;BMP280;52272;-29.642;-50.764;2022-12-04T08:09:08;100085.44;;;25.67
65600;BMP280;52272;-29.642;-50.764;2022-12-04T08:11:42;100084.63;;;25.89
65600;BMP280;52272;-29.642;-50.764;2022-12-04T08:14:12;100087.09;;;26.02
65600;BMP280;52272;-29.642;-50.764;2022-12-04T08:16:42;100062.13;;;25.34
65600;BMP280;52272;-29.642;-50.764;2022-12-04T08:19:20;100089.00;;;25.45
65600;BMP280;52272;-29.642;-50.764;2022-12-04T08:21:53;100098.19;;;25.57
65600;BMP280;52272;-29.642;-50.764;2022-12-04T08:24:24;100096.69;;;25.71
65600;BMP280;52272;-29.642;-50.764;2022-12-04T08:26:58;100098.84;;;25.80
65600;BMP280;52272;-29.642;-50.764;2022-12-04T08:29:28;100107.41;;;25.77
65600;BMP280;52272;-29.642;-50.764;2022-12-04T08:31:58;100098.31;;;25.82
65600;BMP280;52272;-29.642;-50.764;2022-12-04T08:34:30;100094.44;;;25.53
65600;BMP280;52272;-29.642;-50.764;2022-12-04T08:37:01;100101.75;;;25.50
65600;BMP280;52272;-29.642;-50.764;2022-12-04T08:39:31;100097.66;;;25.59
65600;BMP280;52272;-29.642;-50.764;2022-12-04T08:42:02;100114.34;;;25.70
65600;BMP280;52272;-29.642;-50.764;2022-12-04T08:44:32;100105.63;;;25.72
65600;BMP280;52272;-29.642;-50.764;2022-12-04T08:47:02;100121.09;;;26.01
65600;BMP280;52272;-29.642;-50.764;2022-12-04T08:49:32;100123.88;;;25.94
65600;BMP280;52272;-29.642;-50.764;2022-12-04T08:52:03;100115.78;;;25.79
65600;BMP280;52272;-29.642;-50.764;2022-12-04T08:54:34;100114.72;;;25.67
65600;BMP280;52272;-29.642;-50.764;2022-12-04T08:57:05;100119.09;;;25.70
65600;BMP280;52272;-29.642;-50.764;2022-12-04T08:59:38;100123.06;;;25.76
65600;BMP280;52272;-29.642;-50.764;2022-12-04T09:02:10;100121.09;;;25.69
65600;BMP280;52272;-29.642;-50.764;2022-12-04T09:04:41;100132.88;;;25.79
65600;BMP280;52272;-29.642;-50.764;2022-12-04T09:07:12;100135.97;;;26.15
65600;BMP280;52272;-29.642;-50.764;2022-12-04T09:09:45;100127.22;;;26.09
65600;BMP280;52272;-29.642;-50.764;2022-12-04T09:12:23;100131.06;;;25.82
65600;BMP280;52272;-29.642;-50.764;2022-12-04T09:14:53;100133.63;;;25.72
65600;BMP280;52272;-29.642;-50.764;2022-12-04T09:17:24;100143.03;;;25.86
65600;BMP280;52272;-29.642;-50.764;2022-12-04T09:19:53;100142.06;;;26.23
65600;BMP280;52272;-29.642;-50.764;2022-12-04T09:22:29;100136.06;;;25.93
65600;BMP280;52272;-29.642;-50.764;2022-12-04T09:25:19;100143.59;;;26.09
65600;BMP280;52272;-29.642;-50.764;2022-12-04T09:27:49;100135.38;;;26.41
65600;BMP280;52272;-29.642;-50.764;2022-12-04T09:30:21;100137.81;;;26.05
65600;BMP280;52272;-29.642;-50.764;2022-12-04T09:32:51;100133.28;;;26.32
65600;BMP280;52272;-29.642;-50.764;2022-12-04T09:35:21;100132.53;;;26.31
65600;BMP280;52272;-29.642;-50.764;2022-12-04T09:37:51;100133.41;;;26.10
65600;BMP280;52272;-29.642;-50.764;2022-12-04T09:40:28;100141.53;;;26.25
65600;BMP280;52272;-29.642;-50.764;2022-12-04T09:44:03;100147.31;;;26.28
65600;BMP280;52272;-29.642;-50.764;2022-12-04T09:49:35;100152.06;;;25.96
65600;BMP280;52272;-29.642;-50.764;2022-12-04T09:52:14;100160.13;;;25.87
65600;BMP280;52272;-29.642;-50.764;2022-12-04T09:54:50;100167.91;;;26.54
65600;BMP280;52272;-29.642;-50.764;2022-12-04T09:57:44;100167.06;;;26.68
65600;BMP280;52272;-29.642;-50.764;2022-12-04T10:00:18;100171.63;;;26.66
65600;BMP280;52272;-29.642;-50.764;2022-12-04T10:02:56;100168.94;;;26.58
65600;BMP280;52272;-29.642;-50.764;2022-12-04T10:05:44;100169.00;;;26.75
65600;BMP280;52272;-29.642;-50.764;2022-12-04T10:08:22;100184.22;;;26.86
65600;BMP280;52272;-29.642;-50.764;2022-12-04T10:24:53;100196.59;;;26.38
65600;BMP280;52272;-29.642;-50.764;2022-12-04T10:30:21;100206.25;;;26.07
65600;BMP280;52272;-29.642;-50.764;2022-12-04T10:32:57;100197.28;;;26.14
65600;BMP280;52272;-29.642;-50.764;2022-12-04T10:35:30;100197.31;;;26.38
65600;BMP280;52272;-29.642;-50.764;2022-12-04T10:38:05;100205.28;;;26.44
65600;BMP280;52272;-29.642;-50.764;2022-12-04T10:43:35;100215.41;;;26.58
65600;BMP280;52272;-29.642;-50.764;2022-12-04T10:46:14;100218.19;;;27.00
65600;BMP280;52272;-29.642;-50.764;2022-12-04T10:48:48;100218.44;;;27.11
65600;BMP280;52272;-29.642;-50.764;2022-12-04T10:51:20;100221.72;;;27.10
65600;BMP280;52272;-29.642;-50.764;2022-12-04T10:53:51;100223.16;;;27.27
65600;BMP280;52272;-29.642;-50.764;2022-12-04T10:56:24;100227.53;;;27.30
65600;BMP280;52272;-29.642;-50.764;2022-12-04T10:59:01;100231.38;;;27.11
65600;BMP280;52272;-29.642;-50.764;2022-12-04T11:01:32;100238.94;;;27.20
65600;BMP280;52272;-29.642;-50.764;2022-12-04T11:04:19;100230.03;;;27.36
65600;BMP280;52272;-29.642;-50.764;2022-12-04T11:06:51;100241.22;;;27.47
65600;BMP280;52272;-29.642;-50.764;2022-12-04T11:09:28;100230.44;;;27.32
65600;BMP280;52272;-29.642;-50.764;2022-12-04T11:12:17;100235.25;;;27.58
65600;BMP280;52272;-29.642;-50.764;2022-12-04T11:15:02;100230.94;;;27.99
65600;BMP280;52272;-29.642;-50.764;2022-12-04T11:17:32;100237.31;;;28.63
65600;BMP280;52272;-29.642;-50.764;2022-12-04T11:20:14;100247.97;;;29.14
65600;BMP280;52272;-29.642;-50.764;2022-12-04T11:22:55;100251.13;;;29.01
65600;BMP280;52272;-29.642;-50.764;2022-12-04T11:25:37;100244.38;;;29.30
65600;BMP280;52272;-29.642;-50.764;2022-12-04T11:28:25;100247.09;;;29.21
65600;BMP280;52272;-29.642;-50.764;2022-12-04T11:31:17;100256.34;;;29.35
65600;BMP280;52272;-29.642;-50.764;2022-12-04T11:33:52;100256.81;;;29.50
65600;BMP280;52272;-29.642;-50.764;2022-12-04T11:36:38;100253.94;;;30.07
65600;BMP280;52272;-29.642;-50.764;2022-12-04T11:41:44;100257.66;;;30.21
65600;BMP280;52272;-29.642;-50.764;2022-12-04T11:44:26;100255.25;;;30.97
65600;BMP280;52272;-29.642;-50.764;2022-12-04T11:46:59;100258.56;;;31.37
65600;BMP280;52272;-29.642;-50.764;2022-12-04T11:49:31;100265.34;;;31.57
65600;BMP280;52272;-29.642;-50.764;2022-12-04T11:55:03;100265.03;;;31.42
65600;BMP280;52272;-29.642;-50.764;2022-12-04T12:00:42;100261.53;;;31.74
65600;BMP280;52272;-29.642;-50.764;2022-12-04T12:03:33;100269.03;;;32.28
65600;BMP280;52272;-29.642;-50.764;2022-12-04T12:11:30;100268.44;;;32.53
65600;BMP280;52272;-29.642;-50.764;2022-12-04T12:25:29;100262.97;;;34.28
65600;BMP280;52272;-29.642;-50.764;2022-12-04T12:30:51;100268.91;;;34.92
65600;BMP280;52272;-29.642;-50.764;2022-12-04T12:33:41;100275.91;;;35.53
65600;BMP280;52272;-29.642;-50.764;2022-12-04T12:36:14;100265.44;;;35.51
65600;BMP280;52272;-29.642;-50.764;2022-12-04T12:39:19;100274.56;;;35.84
65600;BMP280;52272;-29.642;-50.764;2022-12-04T12:41:51;100270.38;;;35.83
65600;BMP280;52272;-29.642;-50.764;2022-12-04T12:47:24;100268.53;;;37.81
65600;BMP280;52272;-29.642;-50.764;2022-12-04T12:50:20;100265.09;;;39.34
65600;BMP280;52272;-29.642;-50.764;2022-12-04T12:53:12;100271.84;;;40.03
65600;BMP280;52272;-29.642;-50.764;2022-12-04T12:55:51;100276.75;;;40.04
65600;BMP280;52272;-29.642;-50.764;2022-12-04T12:58:47;100281.34;;;38.71
65600;BMP280;52272;-29.642;-50.764;2022-12-04T13:04:29;100260.69;;;36.32
65600;BMP280;52272;-29.642;-50.764;2022-12-04T13:07:19;100262.41;;;35.91
65600;BMP280;52272;-29.642;-50.764;2022-12-04T13:09:55;100270.44;;;34.82
65600;BMP280;52272;-29.642;-50.764;2022-12-04T13:12:27;100264.38;;;33.26
65600;BMP280;52272;-29.642;-50.764;2022-12-04T13:14:58;100266.28;;;32.17
65600;BMP280;52272;-29.642;-50.764;2022-12-04T13:17:36;100257.13;;;31.15
65600;BMP280;52272;-29.642;-50.764;2022-12-04T13:20:15;100257.78;;;30.32
65600;BMP280;52272;-29.642;-50.764;2022-12-04T13:25:43;100265.47;;;28.11
65600;BMP280;52272;-29.642;-50.764;2022-12-04T13:28:20;100267.59;;;27.86
65600;BMP280;52272;-29.642;-50.764;2022-12-04T13:33:56;100270.38;;;28.39
65600;BMP280;52272;-29.642;-50.764;2022-12-04T13:41:57;100269.81;;;27.97
65600;BMP280;52272;-29.642;-50.764;2022-12-04T13:44:30;100276.09;;;28.60
65600;BMP280;52272;-29.642;-50.764;2022-12-04T13:47:04;100280.72;;;29.03
65600;BMP280;52272;-29.642;-50.764;2022-12-04T13:49:37;100277.03;;;29.64
65600;BMP280;52272;-29.642;-50.764;2022-12-04T13:52:23;100274.78;;;30.50
65600;BMP280;52272;-29.642;-50.764;2022-12-04T13:54:58;100273.53;;;31.13
65600;BMP280;52272;-29.642;-50.764;2022-12-04T13:57:28;100273.34;;;31.53
65600;BMP280;52272;-29.642;-50.764;2022-12-04T14:00:22;100264.94;;;31.95
65600;BMP280;52272;-29.642;-50.764;2022-12-04T14:02:56;100267.81;;;32.65
65600;BMP280;52272;-29.642;-50.764;2022-12-04T14:05:31;100254.38;;;32.03
65600;BMP280;52272;-29.642;-50.764;2022-12-04T14:08:52;100251.34;;;33.40
65600;BMP280;52272;-29.642;-50.764;2022-12-04T14:11:24;100248.25;;;33.72
65600;BMP280;52272;-29.642;-50.764;2022-12-04T14:13:58;100247.25;;;33.41
65600;BMP280;52272;-29.642;-50.764;2022-12-04T14:16:38;100247.59;;;33.22
65600;BMP280;52272;-29.642;-50.764;2022-12-04T14:19:28;100245.72;;;33.38
65600;BMP280;52272;-29.642;-50.764;2022-12-04T14:21:59;100236.91;;;34.89
65600;BMP280;52272;-29.642;-50.764;2022-12-04T14:24:38;100233.88;;;36.72
65600;BMP280;52272;-29.642;-50.764;2022-12-04T14:30:33;100231.50;;;38.36
65600;BMP280;52272;-29.642;-50.764;2022-12-04T14:33:20;100227.59;;;37.25
65600;BMP280;52272;-29.642;-50.764;2022-12-04T14:36:02;100214.16;;;36.14
65600;BMP280;52272;-29.642;-50.764;2022-12-04T14:38:34;100214.47;;;35.73
65600;BMP280;52272;-29.642;-50.764;2022-12-04T14:41:04;100211.59;;;35.10
65600;BMP280;52272;-29.642;-50.764;2022-12-04T14:43:40;100208.22;;;34.40
65600;BMP280;52272;-29.642;-50.764;2022-12-04T14:46:30;100205.25;;;34.50
65600;BMP280;52272;-29.642;-50.764;2022-12-04T14:49:36;100209.28;;;34.07
65600;BMP280;52272;-29.642;-50.764;2022-12-04T14:52:24;100186.47;;;33.66
65600;BMP280;52272;-29.642;-50.764;2022-12-04T14:58:18;100178.72;;;33.51
65600;BMP280;52272;-29.642;-50.764;2022-12-04T15:01:20;100176.13;;;33.28
65600;BMP280;52272;-29.642;-50.764;2022-12-04T15:03:58;100166.66;;;33.06
65600;BMP280;52272;-29.642;-50.764;2022-12-04T15:06:35;100161.53;;;33.52
65600;BMP280;52272;-29.642;-50.764;2022-12-04T15:09:20;100152.53;;;34.19
65600;BMP280;52272;-29.642;-50.764;2022-12-04T15:12:21;100158.69;;;34.31
65600;BMP280;52272;-29.642;-50.764;2022-12-04T15:15:14;100150.69;;;34.66
65600;BMP280;52272;-29.642;-50.764;2022-12-04T15:18:08;100147.81;;;35.08
65600;BMP280;52272;-29.642;-50.764;2022-12-04T15:20:53;100156.63;;;34.18
65600;BMP280;52272;-29.642;-50.764;2022-12-04T15:26:01;100155.81;;;33.10
65600;BMP280;52272;-29.642;-50.764;2022-12-04T15:28:56;100139.91;;;32.36
65600;BMP280;52272;-29.642;-50.764;2022-12-04T15:31:35;100138.09;;;31.93
65600;BMP280;52272;-29.642;-50.764;2022-12-04T15:34:15;100135.03;;;31.32
65600;BMP280;52272;-29.642;-50.764;2022-12-04T15:37:00;100136.38;;;30.98
65600;BMP280;52272;-29.642;-50.764;2022-12-04T15:39:33;100123.53;;;30.71
65600;BMP280;52272;-29.642;-50.764;2022-12-04T15:42:28;100130.91;;;30.57
65600;BMP280;52272;-29.642;-50.764;2022-12-04T15:45:22;100135.34;;;30.41
65600;BMP280;52272;-29.642;-50.764;2022-12-04T15:47:53;100124.88;;;30.49
65600;BMP280;52272;-29.642;-50.764;2022-12-04T15:50:26;100123.28;;;30.25
65600;BMP280;52272;-29.642;-50.764;2022-12-04T15:53:14;100127.09;;;30.20
65600;BMP280;52272;-29.642;-50.764;2022-12-04T15:55:50;100119.72;;;29.92
65600;BMP280;52272;-29.642;-50.764;2022-12-04T15:58:28;100127.31;;;30.54
65600;BMP280;52272;-29.642;-50.764;2022-12-04T16:03:53;100128.66;;;30.86
65600;BMP280;52272;-29.642;-50.764;2022-12-04T16:06:27;100133.97;;;31.04
65600;BMP280;52272;-29.642;-50.764;2022-12-04T16:08:59;100129.97;;;30.85